sensor_id;sensor_type;location;lat;lon;timestamp;P1;durP1;ratioP1;P2;durP2;ratioP2
16262;SDS011;8239;48.594;8.598;2023-09-12T00:00:17;10.57;;;9.45;;
16262;SDS011;8239;48.594;8.598;2023-09-12T00:02:44;11.43;;;9.20;;
16262;SDS011;8239;48.594;8.598;2023-09-12T00:05:11;10.85;;;9.65;;
16262;SDS011;8239;48.594;8.598;2023-09-12T00:07:40;12.93;;;9.75;;
16262;SDS011;8239;48.594;8.598;2023-09-12T00:10:07;11.15;;;8.68;;
16262;SDS011;8239;48.594;8.598;2023-09-12T00:12:34;12.48;;;10.18;;
16262;SDS011;8239;48.594;8.598;2023-09-12T00:15:01;11.95;;;9.02;;
16262;SDS011;8239;48.594;8.598;2023-09-12T00:17:29;12.52;;;9.70;;
16262;SDS011;8239;48.594;8.598;2023-09-12T00:19:56;11.27;;;9.05;;
16262;SDS011;8239;48.594;8.598;2023-09-12T00:22:23;10.15;;;9.00;;
16262;SDS011;8239;48.594;8.598;2023-09-12T00:24:51;10.35;;;8.88;;
16262;SDS011;8239;48.594;8.598;2023-09-12T00:27:18;10.45;;;9.35;;
16262;SDS011;8239;48.594;8.598;2023-09-12T00:29:45;11.43;;;9.05;;
16262;SDS011;8239;48.594;8.598;2023-09-12T00:32:13;14.18;;;8.98;;
16262;SDS011;8239;48.594;8.598;2023-09-12T00:34:40;11.65;;;9.07;;
16262;SDS011;8239;48.594;8.598;2023-09-12T00:37:07;10.73;;;8.75;;
16262;SDS011;8239;48.594;8.598;2023-09-12T00:39:35;10.80;;;9.75;;
16262;SDS011;8239;48.594;8.598;2023-09-12T00:42:05;10.18;;;9.05;;
16262;SDS011;8239;48.594;8.598;2023-09-12T00:44:32;13.20;;;9.98;;
16262;SDS011;8239;48.594;8.598;2023-09-12T00:47:00;12.98;;;9.25;;
16262;SDS011;8239;48.594;8.598;2023-09-12T00:49:28;11.02;;;9.80;;
16262;SDS011;8239;48.594;8.598;2023-09-12T00:51:57;11.40;;;9.73;;
16262;SDS011;8239;48.594;8.598;2023-09-12T00:54:25;11.25;;;10.05;;
16262;SDS011;8239;48.594;8.598;2023-09-12T00:56:52;11.27;;;10.07;;
16262;SDS011;8239;48.594;8.598;2023-09-12T00:59:21;12.52;;;10.23;;
16262;SDS011;8239;48.594;8.598;2023-09-12T01:01:49;15.85;;;10.27;;
16262;SDS011;8239;48.594;8.598;2023-09-12T01:04:17;12.27;;;9.82;;
16262;SDS011;8239;48.594;8.598;2023-09-12T01:06:45;10.60;;;9.50;;
16262;SDS011;8239;48.594;8.598;2023-09-12T01:09:13;11.88;;;9.52;;
16262;SDS011;8239;48.594;8.598;2023-09-12T01:11:40;13.52;;;10.20;;
16262;SDS011;8239;48.594;8.598;2023-09-12T01:14:08;14.13;;;10.98;;
16262;SDS011;8239;48.594;8.598;2023-09-12T01:16:38;12.48;;;9.93;;
16262;SDS011;8239;48.594;8.598;2023-09-12T01:19:05;11.02;;;9.93;;
16262;SDS011;8239;48.594;8.598;2023-09-12T01:21:39;13.88;;;10.43;;
16262;SDS011;8239;48.594;8.598;2023-09-12T01:24:31;11.07;;;9.63;;
16262;SDS011;8239;48.594;8.598;2023-09-12T01:27:30;11.43;;;10.32;;
16262;SDS011;8239;48.594;8.598;2023-09-12T01:30:01;12.18;;;10.43;;
16262;SDS011;8239;48.594;8.598;2023-09-12T01:32:30;12.77;;;10.27;;
16262;SDS011;8239;48.594;8.598;2023-09-12T01:34:58;13.98;;;10.85;;
16262;SDS011;8239;48.594;8.598;2023-09-12T01:37:25;12.02;;;10.65;;
16262;SDS011;8239;48.594;8.598;2023-09-12T01:39:52;11.90;;;10.50;;
16262;SDS011;8239;48.594;8.598;2023-09-12T01:42:20;13.82;;;10.45;;
16262;SDS011;8239;48.594;8.598;2023-09-12T01:44:50;12.35;;;10.75;;
16262;SDS011;8239;48.594;8.598;2023-09-12T01:47:22;11.88;;;10.10;;
16262;SDS011;8239;48.594;8.598;2023-09-12T01:49:51;11.60;;;10.40;;
16262;SDS011;8239;48.594;8.598;2023-09-12T01:52:20;10.80;;;9.70;;
16262;SDS011;8239;48.594;8.598;2023-09-12T01:54:48;14.10;;;10.35;;
16262;SDS011;8239;48.594;8.598;2023-09-12T01:57:17;12.32;;;10.93;;
16262;SDS011;8239;48.594;8.598;2023-09-12T01:59:46;16.75;;;11.63;;
16262;SDS011;8239;48.594;8.598;2023-09-12T02:02:15;12.40;;;10.57;;
16262;SDS011;8239;48.594;8.598;2023-09-12T02:04:43;14.38;;;10.88;;
16262;SDS011;8239;48.594;8.598;2023-09-12T02:07:17;14.88;;;10.95;;
16262;SDS011;8239;48.594;8.598;2023-09-12T02:09:44;14.73;;;11.73;;
16262;SDS011;8239;48.594;8.598;2023-09-12T02:12:11;13.57;;;11.18;;
16262;SDS011;8239;48.594;8.598;2023-09-12T02:14:37;13.50;;;11.13;;
16262;SDS011;8239;48.594;8.598;2023-09-12T02:17:04;14.55;;;11.20;;
16262;SDS011;8239;48.594;8.598;2023-09-12T02:19:34;14.05;;;11.70;;
16262;SDS011;8239;48.594;8.598;2023-09-12T02:22:00;14.07;;;11.80;;
16262;SDS011;8239;48.594;8.598;2023-09-12T02:24:27;12.57;;;11.35;;
16262;SDS011;8239;48.594;8.598;2023-09-12T02:26:54;13.15;;;11.82;;
16262;SDS011;8239;48.594;8.598;2023-09-12T02:29:21;15.13;;;11.98;;
16262;SDS011;8239;48.594;8.598;2023-09-12T02:31:48;12.35;;;11.05;;
16262;SDS011;8239;48.594;8.598;2023-09-12T02:34:15;15.98;;;11.23;;
16262;SDS011;8239;48.594;8.598;2023-09-12T02:36:43;13.93;;;11.18;;
16262;SDS011;8239;48.594;8.598;2023-09-12T02:39:10;13.73;;;11.23;;
16262;SDS011;8239;48.594;8.598;2023-09-12T02:41:37;12.65;;;10.55;;
16262;SDS011;8239;48.594;8.598;2023-09-12T02:44:04;12.40;;;11.10;;
16262;SDS011;8239;48.594;8.598;2023-09-12T02:46:31;12.32;;;11.02;;
16262;SDS011;8239;48.594;8.598;2023-09-12T02:48:58;12.65;;;11.35;;
16262;SDS011;8239;48.594;8.598;2023-09-12T02:51:25;12.10;;;10.30;;
16262;SDS011;8239;48.594;8.598;2023-09-12T02:53:53;12.23;;;10.68;;
16262;SDS011;8239;48.594;8.598;2023-09-12T02:56:20;12.13;;;10.80;;
16262;SDS011;8239;48.594;8.598;2023-09-12T02:58:47;14.03;;;11.27;;
16262;SDS011;8239;48.594;8.598;2023-09-12T03:01:15;13.07;;;11.73;;
16262;SDS011;8239;48.594;8.598;2023-09-12T03:03:42;12.82;;;11.52;;
16262;SDS011;8239;48.594;8.598;2023-09-12T03:06:12;13.88;;;11.52;;
16262;SDS011;8239;48.594;8.598;2023-09-12T03:08:39;14.75;;;11.85;;
16262;SDS011;8239;48.594;8.598;2023-09-12T03:11:07;13.15;;;10.65;;
16262;SDS011;8239;48.594;8.598;2023-09-12T03:13:34;14.55;;;11.35;;
16262;SDS011;8239;48.594;8.598;2023-09-12T03:16:02;11.57;;;10.38;;
16262;SDS011;8239;48.594;8.598;2023-09-12T03:18:29;12.05;;;10.50;;
16262;SDS011;8239;48.594;8.598;2023-09-12T03:20:56;12.20;;;10.90;;
16262;SDS011;8239;48.594;8.598;2023-09-12T03:23:23;14.00;;;11.15;;
16262;SDS011;8239;48.594;8.598;2023-09-12T03:25:50;15.43;;;10.45;;
16262;SDS011;8239;48.594;8.598;2023-09-12T03:28:18;12.25;;;10.52;;
16262;SDS011;8239;48.594;8.598;2023-09-12T03:30:45;12.27;;;10.50;;
16262;SDS011;8239;48.594;8.598;2023-09-12T03:33:12;12.27;;;9.88;;
16262;SDS011;8239;48.594;8.598;2023-09-12T03:35:39;12.07;;;9.88;;
16262;SDS011;8239;48.594;8.598;2023-09-12T03:38:10;12.45;;;10.38;;
16262;SDS011;8239;48.594;8.598;2023-09-12T03:40:37;11.57;;;10.38;;
16262;SDS011;8239;48.594;8.598;2023-09-12T03:43:03;11.75;;;10.40;;
16262;SDS011;8239;48.594;8.598;2023-09-12T03:45:32;10.93;;;9.82;;
16262;SDS011;8239;48.594;8.598;2023-09-12T03:47:59;11.38;;;9.90;;
16262;SDS011;8239;48.594;8.598;2023-09-12T03:50:25;10.63;;;9.63;;
16262;SDS011;8239;48.594;8.598;2023-09-12T03:52:52;11.98;;;10.23;;
16262;SDS011;8239;48.594;8.598;2023-09-12T03:55:19;10.68;;;9.32;;
16262;SDS011;8239;48.594;8.598;2023-09-12T03:57:46;12.60;;;10.43;;
16262;SDS011;8239;48.594;8.598;2023-09-12T04:00:13;11.90;;;10.32;;
16262;SDS011;8239;48.594;8.598;2023-09-12T04:02:42;14.70;;;10.88;;
16262;SDS011;8239;48.594;8.598;2023-09-12T04:05:09;11.50;;;10.38;;
16262;SDS011;8239;48.594;8.598;2023-09-12T04:07:36;11.60;;;9.82;;
16262;SDS011;8239;48.594;8.598;2023-09-12T04:10:03;11.93;;;9.70;;
16262;SDS011;8239;48.594;8.598;2023-09-12T04:12:31;12.13;;;10.48;;
16262;SDS011;8239;48.594;8.598;2023-09-12T04:14:57;11.35;;;10.15;;
16262;SDS011;8239;48.594;8.598;2023-09-12T04:17:24;11.65;;;10.10;;
16262;SDS011;8239;48.594;8.598;2023-09-12T04:19:53;13.73;;;10.68;;
16262;SDS011;8239;48.594;8.598;2023-09-12T04:22:20;13.07;;;10.57;;
16262;SDS011;8239;48.594;8.598;2023-09-12T04:24:46;13.02;;;10.68;;
16262;SDS011;8239;48.594;8.598;2023-09-12T04:27:13;11.30;;;9.98;;
16262;SDS011;8239;48.594;8.598;2023-09-12T04:29:40;12.60;;;10.80;;
16262;SDS011;8239;48.594;8.598;2023-09-12T04:32:07;12.07;;;10.75;;
16262;SDS011;8239;48.594;8.598;2023-09-12T04:34:34;13.02;;;10.25;;
16262;SDS011;8239;48.594;8.598;2023-09-12T04:37:03;11.15;;;9.82;;
16262;SDS011;8239;48.594;8.598;2023-09-12T04:39:35;14.57;;;10.43;;
16262;SDS011;8239;48.594;8.598;2023-09-12T04:42:02;12.75;;;10.10;;
16262;SDS011;8239;48.594;8.598;2023-09-12T04:44:30;11.02;;;9.93;;
16262;SDS011;8239;48.594;8.598;2023-09-12T04:47:01;11.85;;;9.95;;
16262;SDS011;8239;48.594;8.598;2023-09-12T04:49:28;11.40;;;10.32;;
16262;SDS011;8239;48.594;8.598;2023-09-12T04:51:55;13.32;;;10.70;;
16262;SDS011;8239;48.594;8.598;2023-09-12T04:54:24;13.18;;;10.35;;
16262;SDS011;8239;48.594;8.598;2023-09-12T04:56:51;11.95;;;10.68;;
16262;SDS011;8239;48.594;8.598;2023-09-12T04:59:18;13.05;;;11.75;;
16262;SDS011;8239;48.594;8.598;2023-09-12T05:01:45;14.05;;;11.68;;
16262;SDS011;8239;48.594;8.598;2023-09-12T05:04:12;14.48;;;12.00;;
16262;SDS011;8239;48.594;8.598;2023-09-12T05:06:40;12.23;;;10.93;;
16262;SDS011;8239;48.594;8.598;2023-09-12T05:09:07;12.25;;;11.07;;
16262;SDS011;8239;48.594;8.598;2023-09-12T05:11:37;12.45;;;10.75;;
16262;SDS011;8239;48.594;8.598;2023-09-12T05:14:04;12.77;;;10.60;;
16262;SDS011;8239;48.594;8.598;2023-09-12T05:16:31;12.18;;;10.93;;
16262;SDS011;8239;48.594;8.598;2023-09-12T05:18:58;11.35;;;10.10;;
16262;SDS011;8239;48.594;8.598;2023-09-12T05:21:25;10.27;;;9.25;;
16262;SDS011;8239;48.594;8.598;2023-09-12T05:23:52;10.88;;;9.60;;
16262;SDS011;8239;48.594;8.598;2023-09-12T05:26:19;10.63;;;9.65;;
16262;SDS011;8239;48.594;8.598;2023-09-12T05:28:47;14.48;;;9.85;;
16262;SDS011;8239;48.594;8.598;2023-09-12T05:31:14;10.48;;;9.32;;
16262;SDS011;8239;48.594;8.598;2023-09-12T05:33:41;12.55;;;9.50;;
16262;SDS011;8239;48.594;8.598;2023-09-12T05:36:09;14.40;;;9.23;;
16262;SDS011;8239;48.594;8.598;2023-09-12T05:38:38;12.60;;;9.90;;
16262;SDS011;8239;48.594;8.598;2023-09-12T05:41:05;10.98;;;9.80;;
16262;SDS011;8239;48.594;8.598;2023-09-12T05:43:32;11.18;;;9.85;;
16262;SDS011;8239;48.594;8.598;2023-09-12T05:46:01;10.95;;;9.73;;
16262;SDS011;8239;48.594;8.598;2023-09-12T05:48:28;12.18;;;9.50;;
16262;SDS011;8239;48.594;8.598;2023-09-12T05:50:55;9.80;;;8.77;;
16262;SDS011;8239;48.594;8.598;2023-09-12T05:53:22;10.70;;;9.60;;
16262;SDS011;8239;48.594;8.598;2023-09-12T05:55:49;11.23;;;10.02;;
16262;SDS011;8239;48.594;8.598;2023-09-12T05:58:16;11.80;;;9.38;;
16262;SDS011;8239;48.594;8.598;2023-09-12T06:00:43;10.45;;;9.35;;
16262;SDS011;8239;48.594;8.598;2023-09-12T06:03:15;10.63;;;9.40;;
16262;SDS011;8239;48.594;8.598;2023-09-12T06:05:42;13.20;;;9.88;;
16262;SDS011;8239;48.594;8.598;2023-09-12T06:08:09;10.43;;;8.93;;
16262;SDS011;8239;48.594;8.598;2023-09-12T06:10:36;12.05;;;9.50;;
16262;SDS011;8239;48.594;8.598;2023-09-12T06:13:03;11.45;;;9.00;;
16262;SDS011;8239;48.594;8.598;2023-09-12T06:15:30;10.90;;;9.52;;
16262;SDS011;8239;48.594;8.598;2023-09-12T06:17:57;10.60;;;8.88;;
16262;SDS011;8239;48.594;8.598;2023-09-12T06:20:25;10.05;;;8.15;;
16262;SDS011;8239;48.594;8.598;2023-09-12T06:22:52;9.60;;;8.45;;
16262;SDS011;8239;48.594;8.598;2023-09-12T06:25:19;9.23;;;8.25;;
16262;SDS011;8239;48.594;8.598;2023-09-12T06:27:46;8.65;;;7.72;;
16262;SDS011;8239;48.594;8.598;2023-09-12T06:30:14;7.72;;;6.95;;
16262;SDS011;8239;48.594;8.598;2023-09-12T06:32:41;9.05;;;7.13;;
16262;SDS011;8239;48.594;8.598;2023-09-12T06:35:08;8.38;;;6.85;;
16262;SDS011;8239;48.594;8.598;2023-09-12T06:37:37;8.77;;;6.93;;
16262;SDS011;8239;48.594;8.598;2023-09-12T06:40:05;7.00;;;6.38;;
16262;SDS011;8239;48.594;8.598;2023-09-12T06:42:33;8.88;;;6.53;;
16262;SDS011;8239;48.594;8.598;2023-09-12T06:45:00;7.40;;;6.50;;
16262;SDS011;8239;48.594;8.598;2023-09-12T06:47:27;7.55;;;6.70;;
16262;SDS011;8239;48.594;8.598;2023-09-12T06:49:54;7.38;;;6.68;;
16262;SDS011;8239;48.594;8.598;2023-09-12T06:52:21;7.22;;;6.63;;
16262;SDS011;8239;48.594;8.598;2023-09-12T06:54:49;8.10;;;6.40;;
16262;SDS011;8239;48.594;8.598;2023-09-12T06:57:16;7.55;;;6.78;;
16262;SDS011;8239;48.594;8.598;2023-09-12T06:59:43;7.90;;;7.10;;
16262;SDS011;8239;48.594;8.598;2023-09-12T07:02:10;8.38;;;6.70;;
16262;SDS011;8239;48.594;8.598;2023-09-12T07:04:38;6.85;;;6.15;;
16262;SDS011;8239;48.594;8.598;2023-09-12T07:07:04;6.90;;;6.30;;
16262;SDS011;8239;48.594;8.598;2023-09-12T07:09:31;6.97;;;6.38;;
16262;SDS011;8239;48.594;8.598;2023-09-12T07:12:00;7.03;;;6.40;;
16262;SDS011;8239;48.594;8.598;2023-09-12T07:14:27;7.05;;;6.10;;
16262;SDS011;8239;48.594;8.598;2023-09-12T07:16:54;9.15;;;6.30;;
16262;SDS011;8239;48.594;8.598;2023-09-12T07:19:21;9.07;;;6.25;;
16262;SDS011;8239;48.594;8.598;2023-09-12T07:21:49;6.47;;;5.88;;
16262;SDS011;8239;48.594;8.598;2023-09-12T07:24:17;5.88;;;5.47;;
16262;SDS011;8239;48.594;8.598;2023-09-12T07:26:44;6.60;;;6.00;;
16262;SDS011;8239;48.594;8.598;2023-09-12T07:29:13;6.28;;;5.80;;
16262;SDS011;8239;48.594;8.598;2023-09-12T07:31:40;6.53;;;5.82;;
16262;SDS011;8239;48.594;8.598;2023-09-12T07:34:07;7.10;;;5.82;;
16262;SDS011;8239;48.594;8.598;2023-09-12T07:36:34;6.85;;;6.05;;
16262;SDS011;8239;48.594;8.598;2023-09-12T07:39:01;6.82;;;6.10;;
16262;SDS011;8239;48.594;8.598;2023-09-12T07:41:29;6.60;;;6.00;;
16262;SDS011;8239;48.594;8.598;2023-09-12T07:43:57;7.20;;;6.07;;
16262;SDS011;8239;48.594;8.598;2023-09-12T07:46:31;7.97;;;6.40;;
16262;SDS011;8239;48.594;8.598;2023-09-12T07:48:58;7.47;;;6.40;;
16262;SDS011;8239;48.594;8.598;2023-09-12T07:51:25;7.32;;;6.68;;
16262;SDS011;8239;48.594;8.598;2023-09-12T07:53:51;8.35;;;6.65;;
16262;SDS011;8239;48.594;8.598;2023-09-12T07:56:24;6.90;;;6.18;;
16262;SDS011;8239;48.594;8.598;2023-09-12T07:58:54;6.95;;;6.30;;
16262;SDS011;8239;48.594;8.598;2023-09-12T08:01:25;6.85;;;5.90;;
16262;SDS011;8239;48.594;8.598;2023-09-12T08:03:53;7.03;;;6.43;;
16262;SDS011;8239;48.594;8.598;2023-09-12T08:06:20;7.68;;;6.95;;
16262;SDS011;8239;48.594;8.598;2023-09-12T08:08:49;7.07;;;6.47;;
16262;SDS011;8239;48.594;8.598;2023-09-12T08:11:16;7.43;;;6.88;;
16262;SDS011;8239;48.594;8.598;2023-09-12T08:13:43;7.38;;;6.30;;
16262;SDS011;8239;48.594;8.598;2023-09-12T08:16:12;7.72;;;7.13;;
16262;SDS011;8239;48.594;8.598;2023-09-12T08:18:39;7.97;;;7.22;;
16262;SDS011;8239;48.594;8.598;2023-09-12T08:21:07;7.85;;;7.15;;
16262;SDS011;8239;48.594;8.598;2023-09-12T08:23:34;7.88;;;7.05;;
16262;SDS011;8239;48.594;8.598;2023-09-12T08:26:01;7.88;;;7.18;;
16262;SDS011;8239;48.594;8.598;2023-09-12T08:28:28;8.15;;;7.45;;
16262;SDS011;8239;48.594;8.598;2023-09-12T08:30:55;7.68;;;6.97;;
16262;SDS011;8239;48.594;8.598;2023-09-12T08:33:22;7.70;;;7.10;;
16262;SDS011;8239;48.594;8.598;2023-09-12T08:35:49;8.02;;;7.32;;
16262;SDS011;8239;48.594;8.598;2023-09-12T08:38:18;8.20;;;7.50;;
16262;SDS011;8239;48.594;8.598;2023-09-12T08:40:47;10.07;;;7.07;;
16262;SDS011;8239;48.594;8.598;2023-09-12T08:43:15;9.70;;;7.55;;
16262;SDS011;8239;48.594;8.598;2023-09-12T08:45:42;9.25;;;7.07;;
16262;SDS011;8239;48.594;8.598;2023-09-12T08:48:09;7.20;;;6.47;;
16262;SDS011;8239;48.594;8.598;2023-09-12T08:50:37;7.93;;;7.22;;
16262;SDS011;8239;48.594;8.598;2023-09-12T08:53:04;7.82;;;7.22;;
16262;SDS011;8239;48.594;8.598;2023-09-12T08:55:33;7.03;;;6.43;;
16262;SDS011;8239;48.594;8.598;2023-09-12T08:58:02;7.40;;;6.70;;
16262;SDS011;8239;48.594;8.598;2023-09-12T09:00:32;7.55;;;6.85;;
16262;SDS011;8239;48.594;8.598;2023-09-12T09:03:00;7.22;;;6.55;;
16262;SDS011;8239;48.594;8.598;2023-09-12T09:05:28;7.28;;;6.70;;
16262;SDS011;8239;48.594;8.598;2023-09-12T09:07:56;6.72;;;6.13;;
16262;SDS011;8239;48.594;8.598;2023-09-12T09:10:24;6.95;;;6.35;;
16262;SDS011;8239;48.594;8.598;2023-09-12T09:12:54;7.07;;;6.47;;
16262;SDS011;8239;48.594;8.598;2023-09-12T09:15:21;7.00;;;6.47;;
16262;SDS011;8239;48.594;8.598;2023-09-12T09:17:52;7.50;;;6.85;;
16262;SDS011;8239;48.594;8.598;2023-09-12T09:20:25;7.60;;;6.90;;
16262;SDS011;8239;48.594;8.598;2023-09-12T09:22:57;7.45;;;6.75;;
16262;SDS011;8239;48.594;8.598;2023-09-12T09:25:30;6.85;;;6.35;;
16262;SDS011;8239;48.594;8.598;2023-09-12T09:27:58;7.53;;;6.90;;
16262;SDS011;8239;48.594;8.598;2023-09-12T09:30:43;7.30;;;6.68;;
16262;SDS011;8239;48.594;8.598;2023-09-12T09:33:11;7.18;;;6.57;;
16262;SDS011;8239;48.594;8.598;2023-09-12T09:35:41;7.47;;;6.78;;
16262;SDS011;8239;48.594;8.598;2023-09-12T09:38:08;6.78;;;6.22;;
16262;SDS011;8239;48.594;8.598;2023-09-12T09:40:46;7.57;;;6.88;;
16262;SDS011;8239;48.594;8.598;2023-09-12T09:43:23;7.22;;;6.53;;
16262;SDS011;8239;48.594;8.598;2023-09-12T09:45:53;7.40;;;6.70;;
16262;SDS011;8239;48.594;8.598;2023-09-12T09:48:20;7.38;;;6.68;;
16262;SDS011;8239;48.594;8.598;2023-09-12T09:50:52;7.07;;;6.55;;
16262;SDS011;8239;48.594;8.598;2023-09-12T09:53:21;7.03;;;6.53;;
16262;SDS011;8239;48.594;8.598;2023-09-12T09:55:52;6.82;;;6.30;;
16262;SDS011;8239;48.594;8.598;2023-09-12T09:58:19;7.85;;;6.70;;
16262;SDS011;8239;48.594;8.598;2023-09-12T10:00:51;6.75;;;6.25;;
16262;SDS011;8239;48.594;8.598;2023-09-12T10:03:18;7.03;;;6.53;;
16262;SDS011;8239;48.594;8.598;2023-09-12T10:05:59;6.82;;;6.32;;
16262;SDS011;8239;48.594;8.598;2023-09-12T10:08:30;7.63;;;6.90;;
16262;SDS011;8239;48.594;8.598;2023-09-12T10:10:58;7.45;;;6.95;;
16262;SDS011;8239;48.594;8.598;2023-09-12T10:13:27;7.45;;;6.75;;
16262;SDS011;8239;48.594;8.598;2023-09-12T10:15:58;6.70;;;6.20;;
16262;SDS011;8239;48.594;8.598;2023-09-12T10:18:26;7.22;;;6.57;;
16262;SDS011;8239;48.594;8.598;2023-09-12T10:21:10;7.68;;;6.68;;
16262;SDS011;8239;48.594;8.598;2023-09-12T10:23:44;7.18;;;6.55;;
16262;SDS011;8239;48.594;8.598;2023-09-12T10:26:16;7.28;;;6.68;;
16262;SDS011;8239;48.594;8.598;2023-09-12T10:28:44;7.05;;;6.38;;
16262;SDS011;8239;48.594;8.598;2023-09-12T10:31:13;6.97;;;6.40;;
16262;SDS011;8239;48.594;8.598;2023-09-12T10:33:41;6.78;;;6.20;;
16262;SDS011;8239;48.594;8.598;2023-09-12T10:36:10;6.70;;;6.28;;
16262;SDS011;8239;48.594;8.598;2023-09-12T10:38:40;6.80;;;6.20;;
16262;SDS011;8239;48.594;8.598;2023-09-12T10:41:10;7.10;;;6.50;;
16262;SDS011;8239;48.594;8.598;2023-09-12T10:43:38;6.70;;;6.20;;
16262;SDS011;8239;48.594;8.598;2023-09-12T10:46:08;6.85;;;6.35;;
16262;SDS011;8239;48.594;8.598;2023-09-12T10:48:36;6.80;;;6.30;;
16262;SDS011;8239;48.594;8.598;2023-09-12T10:51:05;7.25;;;6.63;;
16262;SDS011;8239;48.594;8.598;2023-09-12T10:53:33;6.78;;;6.22;;
16262;SDS011;8239;48.594;8.598;2023-09-12T10:56:16;6.70;;;6.20;;
16262;SDS011;8239;48.594;8.598;2023-09-12T11:01:39;6.32;;;5.93;;
16262;SDS011;8239;48.594;8.598;2023-09-12T11:07:00;6.03;;;5.63;;
16262;SDS011;8239;48.594;8.598;2023-09-12T11:09:27;6.70;;;6.10;;
16262;SDS011;8239;48.594;8.598;2023-09-12T11:11:55;6.53;;;6.03;;
16262;SDS011;8239;48.594;8.598;2023-09-12T11:14:24;6.88;;;6.28;;
16262;SDS011;8239;48.594;8.598;2023-09-12T11:19:49;6.60;;;6.10;;
16262;SDS011;8239;48.594;8.598;2023-09-12T11:22:21;6.30;;;5.80;;
16262;SDS011;8239;48.594;8.598;2023-09-12T11:24:49;6.35;;;5.43;;
16262;SDS011;8239;48.594;8.598;2023-09-12T11:27:16;6.05;;;5.47;;
16262;SDS011;8239;48.594;8.598;2023-09-12T11:29:43;6.18;;;5.65;;
16262;SDS011;8239;48.594;8.598;2023-09-12T11:32:11;5.60;;;5.20;;
16262;SDS011;8239;48.594;8.598;2023-09-12T11:34:53;5.82;;;5.32;;
16262;SDS011;8239;48.594;8.598;2023-09-12T11:37:23;6.10;;;5.50;;
16262;SDS011;8239;48.594;8.598;2023-09-12T11:39:51;5.60;;;5.10;;
16262;SDS011;8239;48.594;8.598;2023-09-12T11:42:19;5.68;;;5.18;;
16262;SDS011;8239;48.594;8.598;2023-09-12T11:44:50;5.93;;;5.32;;
16262;SDS011;8239;48.594;8.598;2023-09-12T11:47:18;5.57;;;5.18;;
16262;SDS011;8239;48.594;8.598;2023-09-12T11:49:48;5.35;;;4.95;;
16262;SDS011;8239;48.594;8.598;2023-09-12T11:52:16;5.57;;;5.18;;
16262;SDS011;8239;48.594;8.598;2023-09-12T11:54:45;5.70;;;5.28;;
16262;SDS011;8239;48.594;8.598;2023-09-12T11:57:13;7.07;;;5.22;;
16262;SDS011;8239;48.594;8.598;2023-09-12T11:59:41;5.40;;;4.90;;
16262;SDS011;8239;48.594;8.598;2023-09-12T12:02:10;5.30;;;4.93;;
16262;SDS011;8239;48.594;8.598;2023-09-12T12:04:37;6.32;;;4.72;;
16262;SDS011;8239;48.594;8.598;2023-09-12T12:07:06;5.20;;;4.70;;
16262;SDS011;8239;48.594;8.598;2023-09-12T12:09:34;5.68;;;5.18;;
16262;SDS011;8239;48.594;8.598;2023-09-12T12:12:04;5.43;;;5.03;;
16262;SDS011;8239;48.594;8.598;2023-09-12T12:14:35;5.03;;;4.65;;
16262;SDS011;8239;48.594;8.598;2023-09-12T12:17:05;6.13;;;4.95;;
16262;SDS011;8239;48.594;8.598;2023-09-12T12:19:34;5.38;;;4.95;;
16262;SDS011;8239;48.594;8.598;2023-09-12T12:22:02;5.40;;;4.90;;
16262;SDS011;8239;48.594;8.598;2023-09-12T12:24:37;5.25;;;4.90;;
16262;SDS011;8239;48.594;8.598;2023-09-12T12:27:05;5.75;;;5.25;;
16262;SDS011;8239;48.594;8.598;2023-09-12T12:29:33;5.50;;;5.10;;
16262;SDS011;8239;48.594;8.598;2023-09-12T12:32:00;5.68;;;5.18;;
16262;SDS011;8239;48.594;8.598;2023-09-12T12:34:29;6.50;;;5.20;;
16262;SDS011;8239;48.594;8.598;2023-09-12T12:36:56;5.53;;;5.13;;
16262;SDS011;8239;48.594;8.598;2023-09-12T12:39:23;5.38;;;4.90;;
16262;SDS011;8239;48.594;8.598;2023-09-12T12:41:52;5.03;;;4.63;;
16262;SDS011;8239;48.594;8.598;2023-09-12T12:44:20;5.72;;;5.22;;
16262;SDS011;8239;48.594;8.598;2023-09-12T12:46:48;5.20;;;4.80;;
16262;SDS011;8239;48.594;8.598;2023-09-12T12:49:15;5.05;;;4.65;;
16262;SDS011;8239;48.594;8.598;2023-09-12T12:51:42;4.85;;;4.55;;
16262;SDS011;8239;48.594;8.598;2023-09-12T12:54:09;5.40;;;4.90;;
16262;SDS011;8239;48.594;8.598;2023-09-12T12:56:36;6.40;;;5.10;;
16262;SDS011;8239;48.594;8.598;2023-09-12T12:59:06;5.00;;;4.60;;
16262;SDS011;8239;48.594;8.598;2023-09-12T13:01:34;5.07;;;4.68;;
16262;SDS011;8239;48.594;8.598;2023-09-12T13:04:04;5.93;;;5.35;;
16262;SDS011;8239;48.594;8.598;2023-09-12T13:06:32;5.70;;;5.20;;
16262;SDS011;8239;48.594;8.598;2023-09-12T13:09:01;5.65;;;5.10;;
16262;SDS011;8239;48.594;8.598;2023-09-12T13:11:30;5.47;;;5.00;;
16262;SDS011;8239;48.594;8.598;2023-09-12T13:13:58;5.50;;;4.95;;
16262;SDS011;8239;48.594;8.598;2023-09-12T13:16:26;5.65;;;5.20;;
16262;SDS011;8239;48.594;8.598;2023-09-12T13:18:54;5.70;;;5.18;;
16262;SDS011;8239;48.594;8.598;2023-09-12T13:21:21;5.82;;;5.22;;
16262;SDS011;8239;48.594;8.598;2023-09-12T13:23:48;5.80;;;5.30;;
16262;SDS011;8239;48.594;8.598;2023-09-12T13:26:15;5.85;;;5.40;;
16262;SDS011;8239;48.594;8.598;2023-09-12T13:28:44;5.40;;;5.10;;
16262;SDS011;8239;48.594;8.598;2023-09-12T13:31:13;5.28;;;4.82;;
16262;SDS011;8239;48.594;8.598;2023-09-12T13:33:41;5.55;;;5.07;;
16262;SDS011;8239;48.594;8.598;2023-09-12T13:36:08;5.43;;;4.93;;
16262;SDS011;8239;48.594;8.598;2023-09-12T13:38:35;5.47;;;5.07;;
16262;SDS011;8239;48.594;8.598;2023-09-12T13:41:01;5.07;;;4.78;;
16262;SDS011;8239;48.594;8.598;2023-09-12T13:43:28;5.53;;;5.13;;
16262;SDS011;8239;48.594;8.598;2023-09-12T13:45:56;5.45;;;5.05;;
16262;SDS011;8239;48.594;8.598;2023-09-12T13:48:23;5.32;;;4.82;;
16262;SDS011;8239;48.594;8.598;2023-09-12T13:50:52;5.15;;;4.82;;
16262;SDS011;8239;48.594;8.598;2023-09-12T13:53:19;5.80;;;4.82;;
16262;SDS011;8239;48.594;8.598;2023-09-12T13:55:46;4.82;;;4.40;;
16262;SDS011;8239;48.594;8.598;2023-09-12T13:58:13;7.05;;;4.72;;
16262;SDS011;8239;48.594;8.598;2023-09-12T14:00:39;7.65;;;5.38;;
16262;SDS011;8239;48.594;8.598;2023-09-12T14:03:06;5.22;;;4.85;;
16262;SDS011;8239;48.594;8.598;2023-09-12T14:05:33;5.40;;;5.03;;
16262;SDS011;8239;48.594;8.598;2023-09-12T14:08:02;5.45;;;5.05;;
16262;SDS011;8239;48.594;8.598;2023-09-12T14:10:29;5.13;;;4.72;;
16262;SDS011;8239;48.594;8.598;2023-09-12T14:12:56;5.72;;;5.30;;
16262;SDS011;8239;48.594;8.598;2023-09-12T14:15:22;5.60;;;5.20;;
16262;SDS011;8239;48.594;8.598;2023-09-12T14:17:50;5.53;;;5.03;;
16262;SDS011;8239;48.594;8.598;2023-09-12T14:20:17;5.40;;;5.00;;
16262;SDS011;8239;48.594;8.598;2023-09-12T14:22:45;5.70;;;5.20;;
16262;SDS011;8239;48.594;8.598;2023-09-12T14:25:13;5.95;;;5.45;;
16262;SDS011;8239;48.594;8.598;2023-09-12T14:27:41;5.40;;;4.90;;
16262;SDS011;8239;48.594;8.598;2023-09-12T14:30:09;5.53;;;5.13;;
16262;SDS011;8239;48.594;8.598;2023-09-12T14:32:38;5.32;;;4.93;;
16262;SDS011;8239;48.594;8.598;2023-09-12T14:35:05;5.30;;;4.80;;
16262;SDS011;8239;48.594;8.598;2023-09-12T14:37:33;5.45;;;5.05;;
16262;SDS011;8239;48.594;8.598;2023-09-12T14:40:02;5.28;;;4.80;;
16262;SDS011;8239;48.594;8.598;2023-09-12T14:42:32;5.05;;;4.75;;
16262;SDS011;8239;48.594;8.598;2023-09-12T14:44:59;5.30;;;4.90;;
16262;SDS011;8239;48.594;8.598;2023-09-12T14:47:26;5.70;;;5.30;;
16262;SDS011;8239;48.594;8.598;2023-09-12T14:49:55;5.18;;;4.78;;
16262;SDS011;8239;48.594;8.598;2023-09-12T14:52:22;5.38;;;4.97;;
16262;SDS011;8239;48.594;8.598;2023-09-12T14:54:51;4.78;;;4.47;;
16262;SDS011;8239;48.594;8.598;2023-09-12T14:57:18;4.95;;;4.55;;
16262;SDS011;8239;48.594;8.598;2023-09-12T14:59:46;4.55;;;4.25;;
16262;SDS011;8239;48.594;8.598;2023-09-12T15:02:13;5.13;;;4.72;;
16262;SDS011;8239;48.594;8.598;2023-09-12T15:04:40;4.75;;;4.43;;
16262;SDS011;8239;48.594;8.598;2023-09-12T15:07:07;4.65;;;4.35;;